createdAt,value
2019-03-24T00:00:20.214Z,77.61
2019-03-24T00:01:27.256Z,77.95
2019-03-24T00:02:20.159Z,77.61
2019-03-24T00:03:20.169Z,77.81
2019-03-24T00:04:20.127Z,77.50
2019-03-24T00:05:20.187Z,77.84
2019-03-24T00:06:20.111Z,77.84
2019-03-24T00:07:20.095Z,77.64
2019-03-24T00:08:20.115Z,77.61
2019-03-24T00:09:20.106Z,77.84
2019-03-24T00:10:20.071Z,77.84
2019-03-24T00:11:20.112Z,77.54
2019-03-24T00:12:20.041Z,77.84
2019-03-24T00:13:20.026Z,77.84
2019-03-24T00:14:20.018Z,77.44
2019-03-24T00:15:26.375Z,78.16
2019-03-24T00:16:20.996Z,78.16
2019-03-24T00:17:19.987Z,77.64
2019-03-24T00:18:19.976Z,78.46
2019-03-24T00:19:19.956Z,78.46
2019-03-24T00:20:19.979Z,78.36
2019-03-24T00:21:19.963Z,78.36
2019-03-24T00:22:19.926Z,78.16
2019-03-24T00:23:19.913Z,77.44
2019-03-24T00:24:19.914Z,77.68
2019-03-24T00:25:19.904Z,78.36
2019-03-24T00:26:19.885Z,78.46
2019-03-24T00:27:20.082Z,78.81
2019-03-24T00:28:19.868Z,78.81
2019-03-24T00:29:19.861Z,78.81
2019-03-24T00:30:19.835Z,78.81
2019-03-24T00:31:19.824Z,78.81
2019-03-24T00:32:19.855Z,79.11
2019-03-24T00:33:19.836Z,79.22
2019-03-24T00:34:19.795Z,78.81
2019-03-24T00:35:19.786Z,78.70
2019-03-24T00:36:19.776Z,78.50
2019-03-24T00:37:19.758Z,79.11
2019-03-24T00:38:19.746Z,79.01
2019-03-24T00:39:19.763Z,78.70
2019-03-24T00:40:19.723Z,79.11
2019-03-24T00:41:19.726Z,78.50
2019-03-24T00:42:19.711Z,78.09
2019-03-24T00:43:19.732Z,77.88
2019-03-24T00:44:19.679Z,77.88
2019-03-24T00:45:19.690Z,77.68
2019-03-24T00:46:19.659Z,77.78
2019-03-24T00:47:19.660Z,77.47
2019-03-24T00:48:19.632Z,77.98
2019-03-24T00:49:19.651Z,78.43
2019-03-24T00:50:19.695Z,78.29
2019-03-24T00:51:19.618Z,78.81
2019-03-24T00:52:19.650Z,79.52
2019-03-24T00:53:19.575Z,79.05
2019-03-24T00:54:19.564Z,78.81
2019-03-24T00:55:19.590Z,78.70
2019-03-24T00:56:19.543Z,78.74
2019-03-24T00:57:19.535Z,79.05
2019-03-24T00:58:19.526Z,78.85
2019-03-24T00:59:19.513Z,79.36
2019-03-24T01:00:19.497Z,79.46
2019-03-24T01:01:19.527Z,79.05
2019-03-24T01:02:19.508Z,78.85
2019-03-24T01:03:19.485Z,78.94
2019-03-24T01:04:19.467Z,78.94
2019-03-24T01:05:19.466Z,79.15
2019-03-24T01:06:19.446Z,79.56
2019-03-24T01:07:19.636Z,79.25
2019-03-24T01:08:19.418Z,79.46
2019-03-24T01:09:20.013Z,78.85
2019-03-24T01:10:19.385Z,78.85
2019-03-24T01:11:19.382Z,78.43
2019-03-24T01:12:19.360Z,78.85
2019-03-24T01:13:19.372Z,79.05
2019-03-24T01:14:19.499Z,78.74
2019-03-24T01:15:20.014Z,79.56
2019-03-24T01:16:19.319Z,79.25
2019-03-24T01:17:19.313Z,79.36
2019-03-24T01:18:19.328Z,79.15
2019-03-24T01:19:19.307Z,79.05
2019-03-24T01:20:19.327Z,78.85
2019-03-24T01:21:19.322Z,79.25
2019-03-24T01:22:19.310Z,78.94
2019-03-24T01:23:19.299Z,78.94
2019-03-24T01:24:19.264Z,78.94
2019-03-24T01:25:19.230Z,78.53
2019-03-24T01:26:19.335Z,78.85
2019-03-24T01:27:19.249Z,78.85
2019-03-24T01:28:19.185Z,78.94
2019-03-24T01:29:19.172Z,78.74
2019-03-24T01:30:19.213Z,78.53
2019-03-24T01:31:20.016Z,78.85
2019-03-24T01:32:19.162Z,78.85
2019-03-24T01:33:19.135Z,79.36
2019-03-24T01:34:19.222Z,79.36
2019-03-24T01:35:19.120Z,78.88
2019-03-24T01:36:19.164Z,78.67
2019-03-24T01:37:19.228Z,78.67
2019-03-24T01:38:19.138Z,79.39
2019-03-24T01:39:19.083Z,79.08
2019-03-24T01:40:19.056Z,79.08
2019-03-24T01:41:19.043Z,78.85
2019-03-24T01:42:19.025Z,78.47
2019-03-24T01:43:19.241Z,78.57
2019-03-24T01:44:19.014Z,78.67
2019-03-24T01:45:19.046Z,79.19
2019-03-24T01:46:19.045Z,78.57
2019-03-24T01:47:19.134Z,78.98
2019-03-24T01:48:19.022Z,78.88
2019-03-24T01:49:18.979Z,78.47
2019-03-24T01:50:19.039Z,79.39
2019-03-24T01:51:19.003Z,79.29
2019-03-24T01:52:18.980Z,79.19
2019-03-24T01:53:18.902Z,78.67
2019-03-24T01:54:18.891Z,78.67
2019-03-24T01:55:19.036Z,78.57
2019-03-24T01:56:18.868Z,79.19
2019-03-24T01:57:18.920Z,78.30
2019-03-24T01:58:18.858Z,78.71
2019-03-24T01:59:18.832Z,79.12
2019-03-24T02:00:18.976Z,79.22
2019-03-24T02:01:18.810Z,79.63
2019-03-24T02:02:18.868Z,79.43
2019-03-24T02:03:18.808Z,79.22
2019-03-24T02:04:18.845Z,79.22
2019-03-24T02:05:18.842Z,78.92
2019-03-24T02:06:18.766Z,79.63
2019-03-24T02:07:18.792Z,79.02
2019-03-24T02:08:18.764Z,79.02
2019-03-24T02:09:18.767Z,79.22
2019-03-24T02:10:18.758Z,79.22
2019-03-24T02:11:18.883Z,79.53
2019-03-24T02:12:18.690Z,79.57
2019-03-24T02:13:18.683Z,79.16
2019-03-24T02:14:18.744Z,79.16
2019-03-24T02:15:18.696Z,79.33
2019-03-24T02:16:18.707Z,79.67
2019-03-24T02:17:18.721Z,79.47
2019-03-24T02:18:18.671Z,79.43
2019-03-24T02:19:18.660Z,79.74
2019-03-24T02:20:18.661Z,79.47
2019-03-24T02:21:18.597Z,79.88
2019-03-24T02:22:18.601Z,80.08
2019-03-24T02:23:18.569Z,79.98
2019-03-24T02:24:18.557Z,80.08
2019-03-24T02:25:18.548Z,80.15
2019-03-24T02:26:18.616Z,79.63
2019-03-24T02:27:18.614Z,80.08
2019-03-24T02:28:18.627Z,79.43
2019-03-24T02:29:18.627Z,79.63
2019-03-24T02:30:18.645Z,79.26
2019-03-24T02:31:18.542Z,79.67
2019-03-24T02:32:18.531Z,79.16
2019-03-24T02:33:18.520Z,79.47
2019-03-24T02:34:18.511Z,80.19
2019-03-24T02:35:18.591Z,80.91
2019-03-24T02:36:18.523Z,79.98
2019-03-24T02:37:18.481Z,80.08
2019-03-24T02:38:18.447Z,80.39
2019-03-24T02:39:18.451Z,80.08
2019-03-24T02:40:18.633Z,79.98
2019-03-24T02:41:18.427Z,79.77
2019-03-24T02:42:18.382Z,79.88
2019-03-24T02:43:18.598Z,79.88
2019-03-24T02:44:18.394Z,80.91
2019-03-24T02:45:18.352Z,80.80
2019-03-24T02:46:24.337Z,80.29
2019-03-24T02:47:19.309Z,80.80
2019-03-24T02:48:18.297Z,79.88
2019-03-24T02:49:18.331Z,80.91
2019-03-24T02:50:18.333Z,80.08
2019-03-24T02:51:18.357Z,79.57
2019-03-24T02:52:18.279Z,79.98
2019-03-24T02:53:18.308Z,80.19
2019-03-24T02:54:18.334Z,79.88
2019-03-24T02:55:18.366Z,79.57
2019-03-24T02:56:18.272Z,79.47
2019-03-24T02:57:18.230Z,79.47
2019-03-24T02:58:18.179Z,79.26
2019-03-24T02:59:18.240Z,79.36
2019-03-24T03:00:18.219Z,79.47
2019-03-24T03:01:18.277Z,79.05
2019-03-24T03:02:18.690Z,79.16
2019-03-24T03:03:18.160Z,79.05
2019-03-24T03:04:18.174Z,79.05
2019-03-24T03:05:18.143Z,79.57
2019-03-24T03:06:18.161Z,79.26
2019-03-24T03:07:18.223Z,78.99
2019-03-24T03:08:18.175Z,78.85
2019-03-24T03:09:18.131Z,79.05
2019-03-24T03:10:18.183Z,78.44
2019-03-24T03:11:18.072Z,78.68
2019-03-24T03:12:18.056Z,78.44
2019-03-24T03:13:18.080Z,78.17
2019-03-24T03:14:18.070Z,78.06
2019-03-24T03:15:18.033Z,78.37
2019-03-24T03:16:18.027Z,77.86
2019-03-24T03:17:18.043Z,78.27
2019-03-24T03:18:18.021Z,77.03
2019-03-24T03:19:18.009Z,77.31
2019-03-24T03:20:18.058Z,76.93
2019-03-24T03:21:17.966Z,76.18
2019-03-24T03:22:17.969Z,75.76
2019-03-24T03:23:17.939Z,75.87
2019-03-24T03:24:17.940Z,75.46
2019-03-24T03:25:17.935Z,75.39
2019-03-24T03:26:17.933Z,75.15
2019-03-24T03:27:17.857Z,75.35
2019-03-24T03:28:17.850Z,75.56
2019-03-24T03:29:17.900Z,75.15
2019-03-24T03:30:17.890Z,74.67
2019-03-24T03:31:17.847Z,75.04
2019-03-24T03:32:17.854Z,75.35
2019-03-24T03:33:17.801Z,74.84
2019-03-24T03:34:17.869Z,74.33
2019-03-24T03:35:17.903Z,75.04
2019-03-24T03:36:17.786Z,74.67
2019-03-24T03:37:17.846Z,75.04
2019-03-24T03:38:17.848Z,73.71
2019-03-24T03:39:17.774Z,73.95
2019-03-24T03:40:17.709Z,74.67
2019-03-24T03:41:17.757Z,74.98
2019-03-24T03:42:17.693Z,74.57
2019-03-24T03:43:17.818Z,75.08
2019-03-24T03:44:17.733Z,74.77
2019-03-24T03:45:17.720Z,75.18
2019-03-24T03:46:17.654Z,75.18
2019-03-24T03:47:17.639Z,74.57
2019-03-24T03:48:17.729Z,74.77
2019-03-24T03:49:17.621Z,74.87
2019-03-24T03:50:17.819Z,74.87
2019-03-24T03:51:17.733Z,74.74
2019-03-24T03:52:17.628Z,74.84
2019-03-24T03:53:17.668Z,75.08
2019-03-24T03:54:17.625Z,74.36
2019-03-24T03:55:17.618Z,74.53
2019-03-24T03:56:17.610Z,74.57
2019-03-24T03:57:17.680Z,74.36
2019-03-24T03:58:17.525Z,74.98
2019-03-24T03:59:17.552Z,74.98
2019-03-24T04:00:17.556Z,74.74
2019-03-24T04:01:17.484Z,74.67
2019-03-24T04:02:17.618Z,74.77
2019-03-24T04:03:17.503Z,74.57
2019-03-24T04:04:17.503Z,74.36
2019-03-24T04:05:17.485Z,74.87
2019-03-24T04:06:17.449Z,74.87
2019-03-24T04:07:17.426Z,74.46
2019-03-24T04:08:17.440Z,75.08
2019-03-24T04:09:17.531Z,75.29
2019-03-24T04:10:17.384Z,75.08
2019-03-24T04:11:17.364Z,75.18
2019-03-24T04:12:17.410Z,75.18
2019-03-24T04:13:17.374Z,75.29
2019-03-24T04:14:17.354Z,75.39
2019-03-24T04:15:17.324Z,74.77
2019-03-24T04:16:17.318Z,75.52
2019-03-24T04:17:17.300Z,76.14
2019-03-24T04:18:17.329Z,74.98
2019-03-24T04:19:17.284Z,74.80
2019-03-24T04:20:17.272Z,74.87
2019-03-24T04:21:17.263Z,75.22
2019-03-24T04:22:17.251Z,75.22
2019-03-24T04:23:17.234Z,75.08
2019-03-24T04:24:17.250Z,75.39
2019-03-24T04:25:17.220Z,75.08
2019-03-24T04:26:17.217Z,74.87
2019-03-24T04:27:17.228Z,75.08
2019-03-24T04:28:17.178Z,73.85
2019-03-24T04:29:17.165Z,74.05
2019-03-24T04:30:17.301Z,74.19
2019-03-24T04:31:17.148Z,74.29
2019-03-24T04:32:17.164Z,73.88
2019-03-24T04:33:17.144Z,73.98
2019-03-24T04:34:17.124Z,74.08
2019-03-24T04:35:17.114Z,73.57
2019-03-24T04:36:17.091Z,74.19
2019-03-24T04:37:17.091Z,74.19
2019-03-24T04:38:17.091Z,74.08
2019-03-24T04:39:17.063Z,74.40
2019-03-24T04:40:17.044Z,73.68
2019-03-24T04:41:17.036Z,73.98
2019-03-24T04:42:17.056Z,75.12
2019-03-24T04:43:17.056Z,73.68
2019-03-24T04:44:17.002Z,74.08
2019-03-24T04:45:16.988Z,74.29
2019-03-24T04:46:16.983Z,74.19
2019-03-24T04:47:17.067Z,73.98
2019-03-24T04:48:16.993Z,73.88
2019-03-24T04:49:17.042Z,74.91
2019-03-24T04:50:16.935Z,74.40
2019-03-24T04:51:16.931Z,73.57
2019-03-24T04:52:16.912Z,73.26
2019-03-24T04:53:16.899Z,73.47
2019-03-24T04:54:16.927Z,73.06
2019-03-24T04:55:16.875Z,73.16
2019-03-24T04:56:16.863Z,73.26
2019-03-24T04:57:16.858Z,73.57
2019-03-24T04:58:16.846Z,72.85
2019-03-24T04:59:16.832Z,73.16
2019-03-24T05:00:16.855Z,73.16
2019-03-24T05:01:16.811Z,73.98
2019-03-24T05:02:16.804Z,73.78
2019-03-24T05:03:16.793Z,73.78
2019-03-24T05:04:16.779Z,73.71
2019-03-24T05:05:16.901Z,73.30
2019-03-24T05:06:16.757Z,73.40
2019-03-24T05:07:16.741Z,73.19
2019-03-24T05:08:16.729Z,72.96
2019-03-24T05:09:16.721Z,73.19
2019-03-24T05:10:16.830Z,73.50
2019-03-24T05:11:16.723Z,73.30
2019-03-24T05:12:16.700Z,73.91
2019-03-24T05:13:16.784Z,74.12
2019-03-24T05:14:16.671Z,73.30
2019-03-24T05:15:16.653Z,73.61
2019-03-24T05:16:16.669Z,73.71
2019-03-24T05:17:26.502Z,73.81
2019-03-24T05:18:17.642Z,73.61
2019-03-24T05:19:16.612Z,74.12
2019-03-24T05:20:16.621Z,73.91
2019-03-24T05:21:16.594Z,74.84
2019-03-24T05:22:16.582Z,74.22
2019-03-24T05:23:16.576Z,73.61
2019-03-24T05:24:16.598Z,73.71
2019-03-24T05:25:16.571Z,73.91
2019-03-24T05:26:16.535Z,74.63
2019-03-24T05:27:16.519Z,75.15
2019-03-24T05:28:16.538Z,75.25
2019-03-24T05:29:17.559Z,75.25
2019-03-24T05:30:16.518Z,74.95
2019-03-24T05:31:16.478Z,74.63
2019-03-24T05:32:16.592Z,73.91
2019-03-24T05:33:16.465Z,74.33
2019-03-24T05:34:16.440Z,74.53
2019-03-24T05:35:16.431Z,74.02
2019-03-24T05:36:16.449Z,75.05
2019-03-24T05:37:16.438Z,74.22
2019-03-24T05:38:16.400Z,75.05
2019-03-24T05:39:16.459Z,73.91
2019-03-24T05:40:16.448Z,74.53
2019-03-24T05:41:16.365Z,73.61
2019-03-24T05:42:16.352Z,74.16
2019-03-24T05:43:16.375Z,74.26
2019-03-24T05:44:16.335Z,74.16
2019-03-24T05:45:16.316Z,75.29
2019-03-24T05:46:16.306Z,75.18
2019-03-24T05:47:16.302Z,74.57
2019-03-24T05:48:17.065Z,75.18
2019-03-24T05:49:16.324Z,75.60
2019-03-24T05:50:16.322Z,75.18
2019-03-24T05:51:16.260Z,75.32
2019-03-24T05:52:16.310Z,74.88
2019-03-24T05:53:17.073Z,75.29
2019-03-24T05:54:16.216Z,75.53
2019-03-24T05:55:16.247Z,74.88
2019-03-24T05:56:16.277Z,75.43
2019-03-24T05:57:16.232Z,75.53
2019-03-24T05:58:16.172Z,75.94
2019-03-24T05:59:16.181Z,75.53
2019-03-24T06:00:16.244Z,75.43
2019-03-24T06:01:23.694Z,75.22
2019-03-24T06:02:16.147Z,75.94
2019-03-24T06:03:16.154Z,76.53
2019-03-24T06:04:16.105Z,76.53
2019-03-24T06:05:16.147Z,76.83
2019-03-24T06:06:16.083Z,77.76
2019-03-24T06:07:16.094Z,77.76
2019-03-24T06:08:16.109Z,77.76
2019-03-24T06:09:16.096Z,76.93
2019-03-24T06:10:16.088Z,76.53
2019-03-24T06:11:16.046Z,76.42
2019-03-24T06:12:17.111Z,76.32
2019-03-24T06:13:16.030Z,76.25
2019-03-24T06:14:15.987Z,75.39
2019-03-24T06:15:16.083Z,75.49
2019-03-24T06:16:15.988Z,75.32
2019-03-24T06:17:15.970Z,75.73
2019-03-24T06:18:16.038Z,75.63
2019-03-24T06:19:15.946Z,75.73
2019-03-24T06:20:15.987Z,76.08
2019-03-24T06:21:15.977Z,76.08
2019-03-24T06:22:15.896Z,76.29
2019-03-24T06:23:15.907Z,76.18
2019-03-24T06:24:15.989Z,76.70
2019-03-24T06:25:16.005Z,76.59
2019-03-24T06:26:15.905Z,76.49
2019-03-24T06:27:15.861Z,76.18
2019-03-24T06:28:15.855Z,76.49
2019-03-24T06:29:15.875Z,76.39
2019-03-24T06:30:15.848Z,75.98
2019-03-24T06:31:15.954Z,76.49
2019-03-24T06:32:15.787Z,76.73
2019-03-24T06:33:15.891Z,77.04
2019-03-24T06:34:15.810Z,77.56
2019-03-24T06:35:15.817Z,76.94
2019-03-24T06:36:15.752Z,77.25
2019-03-24T06:37:15.917Z,77.66
2019-03-24T06:38:15.799Z,78.18
2019-03-24T06:39:15.846Z,77.59
2019-03-24T06:40:15.760Z,77.80
2019-03-24T06:41:15.720Z,77.91
2019-03-24T06:42:15.890Z,78.31
2019-03-24T06:43:15.667Z,78.11
2019-03-24T06:44:15.753Z,78.83
2019-03-24T06:45:15.706Z,78.73
2019-03-24T06:46:15.695Z,78.77
2019-03-24T06:47:15.684Z,78.83
2019-03-24T06:48:15.678Z,79.49
2019-03-24T06:49:15.749Z,79.18
2019-03-24T06:50:15.658Z,79.08
2019-03-24T06:51:15.651Z,79.28
2019-03-24T06:52:15.625Z,79.38
2019-03-24T06:53:15.699Z,79.59
2019-03-24T06:54:15.602Z,79.49
2019-03-24T06:55:15.781Z,79.69
2019-03-24T06:56:15.586Z,79.18
2019-03-24T06:57:16.982Z,80.07
2019-03-24T06:58:15.568Z,79.90
2019-03-24T06:59:15.553Z,80.11
2019-03-24T07:00:15.532Z,79.86
2019-03-24T07:01:15.607Z,79.86
2019-03-24T07:02:15.536Z,80.28
2019-03-24T07:03:15.610Z,80.79
2019-03-24T07:04:15.537Z,80.58
2019-03-24T07:05:15.492Z,80.34
2019-03-24T07:06:15.470Z,79.83
2019-03-24T07:07:15.429Z,79.41
2019-03-24T07:08:15.453Z,79.72
2019-03-24T07:09:15.442Z,79.11
2019-03-24T07:10:15.454Z,79.31
2019-03-24T07:11:15.410Z,79.21
2019-03-24T07:12:15.433Z,79.72
2019-03-24T07:13:15.400Z,79.00
2019-03-24T07:14:15.391Z,78.69
2019-03-24T07:15:15.371Z,78.18
2019-03-24T07:16:15.467Z,78.08
2019-03-24T07:17:15.373Z,78.38
2019-03-24T07:18:15.344Z,78.24
2019-03-24T07:19:15.326Z,77.83
2019-03-24T07:20:15.318Z,77.94
2019-03-24T07:21:15.407Z,77.94
2019-03-24T07:22:16.115Z,77.73
2019-03-24T07:23:15.284Z,77.69
2019-03-24T07:24:15.269Z,77.48
2019-03-24T07:25:15.315Z,77.48
2019-03-24T07:26:15.255Z,76.97
2019-03-24T07:27:15.284Z,76.76
2019-03-24T07:28:15.351Z,76.97
2019-03-24T07:29:15.209Z,76.87
2019-03-24T07:30:15.173Z,76.97
2019-03-24T07:31:15.181Z,77.28
2019-03-24T07:32:15.277Z,77.45
2019-03-24T07:33:15.183Z,77.35
2019-03-24T07:34:16.113Z,76.93
2019-03-24T07:35:15.197Z,76.83
2019-03-24T07:36:15.142Z,76.63
2019-03-24T07:37:15.120Z,76.70
2019-03-24T07:38:15.140Z,76.83
2019-03-24T07:39:15.106Z,76.39
2019-03-24T07:40:15.069Z,76.49
2019-03-24T07:41:15.229Z,76.49
2019-03-24T07:42:15.074Z,75.67
2019-03-24T07:43:15.145Z,75.56
2019-03-24T07:44:15.055Z,75.15
2019-03-24T07:45:15.048Z,75.15
2019-03-24T07:46:15.026Z,74.95
2019-03-24T07:47:15.141Z,75.15
2019-03-24T07:48:19.441Z,75.15
2019-03-24T07:49:14.952Z,75.22
2019-03-24T07:50:14.991Z,75.05
2019-03-24T07:51:14.981Z,75.42
2019-03-24T07:52:14.966Z,75.25
2019-03-24T07:53:15.134Z,75.87
2019-03-24T07:54:14.943Z,75.52
2019-03-24T07:55:14.914Z,75.12
2019-03-24T07:56:14.925Z,75.22
2019-03-24T07:57:15.617Z,75.94
2019-03-24T07:58:14.895Z,78.37
2019-03-24T07:59:14.964Z,77.86
2019-03-24T08:00:14.809Z,76.01
2019-03-24T08:01:14.861Z,75.80
2019-03-24T08:02:14.817Z,76.38
2019-03-24T08:03:14.830Z,76.18
2019-03-24T08:04:14.845Z,76.79
2019-03-24T08:05:14.959Z,76.38
2019-03-24T08:06:14.801Z,76.25
2019-03-24T08:07:14.808Z,75.12
2019-03-24T08:08:14.877Z,75.12
2019-03-24T08:09:14.767Z,75.21
2019-03-24T08:10:14.759Z,74.70
2019-03-24T08:11:14.752Z,74.57
2019-03-24T08:12:14.739Z,74.70
2019-03-24T08:13:14.825Z,73.85
2019-03-24T08:14:14.707Z,73.57
2019-03-24T08:15:14.701Z,73.23
2019-03-24T08:16:14.688Z,73.85
2019-03-24T08:17:14.679Z,73.74
2019-03-24T08:18:14.784Z,73.44
2019-03-24T08:19:14.673Z,73.02
2019-03-24T08:20:14.635Z,72.48
2019-03-24T08:21:14.742Z,72.72
2019-03-24T08:22:14.658Z,72.61
2019-03-24T08:23:14.612Z,73.23
2019-03-24T08:24:14.697Z,72.99
2019-03-24T08:25:14.611Z,73.10
2019-03-24T08:26:14.579Z,72.58
2019-03-24T08:27:14.574Z,71.66
2019-03-24T08:28:14.591Z,72.58
2019-03-24T08:29:14.549Z,72.58
2019-03-24T08:30:14.529Z,73.50
2019-03-24T08:31:14.506Z,73.36
2019-03-24T08:32:14.509Z,73.57
2019-03-24T08:33:14.500Z,71.31
2019-03-24T08:34:14.493Z,71.11
2019-03-24T08:35:14.579Z,71.42
2019-03-24T08:36:15.668Z,70.39
2019-03-24T08:37:14.476Z,70.39
2019-03-24T08:38:14.439Z,70.80
2019-03-24T08:39:14.424Z,70.70
2019-03-24T08:40:14.663Z,71.21
2019-03-24T08:41:14.432Z,71.31
2019-03-24T08:42:14.386Z,71.28
2019-03-24T08:43:14.379Z,71.18
2019-03-24T08:44:14.381Z,70.87
2019-03-24T08:45:14.367Z,69.64
2019-03-24T08:46:14.455Z,69.74
2019-03-24T08:47:14.342Z,69.43
2019-03-24T08:48:14.372Z,69.54
2019-03-24T08:49:14.401Z,69.64
2019-03-24T08:50:14.408Z,69.54
2019-03-24T08:51:14.331Z,69.78
2019-03-24T08:52:14.301Z,69.16
2019-03-24T08:53:14.280Z,69.57
2019-03-24T08:54:14.261Z,69.47
2019-03-24T08:55:14.286Z,69.98
2019-03-24T08:56:14.346Z,70.90
2019-03-24T08:57:14.232Z,70.39
2019-03-24T08:58:14.206Z,71.11
2019-03-24T08:59:14.207Z,70.50
2019-03-24T09:00:14.197Z,69.47
2019-03-24T09:01:14.192Z,69.57
2019-03-24T09:02:14.240Z,69.37
2019-03-24T09:03:14.176Z,69.78
2019-03-24T09:04:14.309Z,69.67
2019-03-24T09:05:14.112Z,70.42
2019-03-24T09:06:14.137Z,70.70
2019-03-24T09:07:14.266Z,70.53
2019-03-24T09:08:14.116Z,70.80
2019-03-24T09:09:14.097Z,72.14
2019-03-24T09:10:14.093Z,72.03
2019-03-24T09:11:14.075Z,72.24
2019-03-24T09:12:14.075Z,71.62
2019-03-24T09:13:14.160Z,71.39
2019-03-24T09:14:14.056Z,70.46
2019-03-24T09:15:14.007Z,70.53
2019-03-24T09:16:14.116Z,69.40
2019-03-24T09:17:14.629Z,69.40
2019-03-24T09:18:14.017Z,69.10
2019-03-24T09:19:13.969Z,69.10
2019-03-24T09:20:14.090Z,68.79
2019-03-24T09:21:13.972Z,68.48
2019-03-24T09:22:13.964Z,68.59
2019-03-24T09:23:14.045Z,67.73
2019-03-24T09:24:13.941Z,67.76
2019-03-24T09:25:13.918Z,68.17
2019-03-24T09:26:13.907Z,68.89
2019-03-24T09:27:13.893Z,68.38
2019-03-24T09:28:13.855Z,68.76
2019-03-24T09:29:13.962Z,68.96
2019-03-24T09:30:13.859Z,68.24
2019-03-24T09:31:13.815Z,67.29
2019-03-24T09:32:13.860Z,67.94
2019-03-24T09:33:13.846Z,67.19
2019-03-24T09:34:13.783Z,67.70
2019-03-24T09:35:13.893Z,67.49
2019-03-24T09:36:13.791Z,67.19
2019-03-24T09:37:13.770Z,67.29
2019-03-24T09:38:13.848Z,67.19
2019-03-24T09:39:13.725Z,67.57
2019-03-24T09:40:13.734Z,66.54
2019-03-24T09:41:13.853Z,66.57
2019-03-24T09:42:13.692Z,66.44
2019-03-24T09:43:13.719Z,66.24
2019-03-24T09:44:14.008Z,66.34
2019-03-24T09:45:13.667Z,65.52
2019-03-24T09:46:13.689Z,64.90
2019-03-24T09:47:13.703Z,65.21
2019-03-24T09:48:13.644Z,65.31
2019-03-24T09:49:13.756Z,63.98
2019-03-24T09:50:13.591Z,63.47
2019-03-24T09:51:13.622Z,63.37
2019-03-24T09:52:13.623Z,63.47
2019-03-24T09:53:13.579Z,63.88
2019-03-24T09:54:13.587Z,64.18
2019-03-24T09:55:13.667Z,63.98
2019-03-24T09:56:13.535Z,63.37
2019-03-24T09:57:13.664Z,63.47
2019-03-24T09:58:13.552Z,63.37
2019-03-24T09:59:13.535Z,63.75
2019-03-24T10:00:13.539Z,63.17
2019-03-24T10:01:13.518Z,63.26
2019-03-24T10:02:13.578Z,62.83
2019-03-24T10:03:13.528Z,61.19
2019-03-24T10:04:13.491Z,61.29
2019-03-24T10:05:13.481Z,59.66
2019-03-24T10:06:13.593Z,60.06
2019-03-24T10:07:13.440Z,60.65
2019-03-24T10:08:13.442Z,61.57
2019-03-24T10:09:13.422Z,61.77
2019-03-24T10:10:13.417Z,61.47
2019-03-24T10:11:13.503Z,61.16
2019-03-24T10:12:13.375Z,62.18
2019-03-24T10:13:13.407Z,61.34
2019-03-24T10:14:13.364Z,59.83
2019-03-24T10:15:13.493Z,59.63
2019-03-24T10:16:13.362Z,61.44
2019-03-24T10:17:13.427Z,62.26
2019-03-24T10:18:13.338Z,61.34
2019-03-24T10:19:14.455Z,61.00
2019-03-24T10:20:13.394Z,61.00
2019-03-24T10:21:13.294Z,60.90
2019-03-24T10:22:13.278Z,58.96
2019-03-24T10:23:13.261Z,60.69
2019-03-24T10:24:13.257Z,61.21
2019-03-24T10:25:13.300Z,61.18
2019-03-24T10:26:13.250Z,60.97
2019-03-24T10:27:13.228Z,60.46
2019-03-24T10:28:13.302Z,60.46
2019-03-24T10:29:13.199Z,61.18
2019-03-24T10:30:13.216Z,61.31
2019-03-24T10:31:13.173Z,61.31
2019-03-24T10:32:13.167Z,61.13
2019-03-24T10:33:13.197Z,61.65
2019-03-24T10:34:13.315Z,62.16
2019-03-24T10:35:13.129Z,62.66
2019-03-24T10:36:13.121Z,63.48
2019-03-24T10:37:13.122Z,63.07
2019-03-24T10:38:13.105Z,62.26
2019-03-24T10:39:13.059Z,62.66
2019-03-24T10:40:13.193Z,62.05
2019-03-24T10:41:13.081Z,62.23
2019-03-24T10:42:13.047Z,62.02
2019-03-24T10:43:13.041Z,61.10
2019-03-24T10:44:13.026Z,60.69
2019-03-24T10:45:12.993Z,60.80
2019-03-24T10:46:13.081Z,61.10
2019-03-24T10:47:13.073Z,59.27
2019-03-24T10:48:13.038Z,61.00
2019-03-24T10:49:13.050Z,60.72
2019-03-24T10:50:14.428Z,61.03
2019-03-24T10:51:13.021Z,60.52
2019-03-24T10:52:12.927Z,60.83
2019-03-24T10:53:12.986Z,60.80
2019-03-24T10:54:13.023Z,59.37
2019-03-24T10:55:12.891Z,59.16
2019-03-24T10:56:12.900Z,58.14
2019-03-24T10:57:12.868Z,58.11
2019-03-24T10:58:12.891Z,58.52
2019-03-24T10:59:13.078Z,59.64
2019-03-24T11:00:12.901Z,59.95
2019-03-24T11:01:12.842Z,59.00
2019-03-24T11:02:12.821Z,59.52
2019-03-24T11:03:12.819Z,59.11
2019-03-24T11:04:12.806Z,59.41
2019-03-24T11:05:12.864Z,59.00
2019-03-24T11:06:12.761Z,59.21
2019-03-24T11:07:12.767Z,59.95
2019-03-24T11:08:12.751Z,59.41
2019-03-24T11:09:12.794Z,58.50
2019-03-24T11:10:12.907Z,59.75
2019-03-24T11:11:12.733Z,59.21
2019-03-24T11:12:12.717Z,58.70
2019-03-24T11:13:12.741Z,58.80
2019-03-24T11:14:12.673Z,59.62
2019-03-24T11:15:12.683Z,58.29
2019-03-24T11:16:12.742Z,58.42
2019-03-24T11:17:12.663Z,59.14
2019-03-24T11:18:12.617Z,58.32
2019-03-24T11:19:12.613Z,58.42
2019-03-24T11:20:12.571Z,58.73
2019-03-24T11:21:12.601Z,59.31
2019-03-24T11:22:12.599Z,59.00
2019-03-24T11:23:12.555Z,58.67
2019-03-24T11:24:12.536Z,58.67
2019-03-24T11:25:12.523Z,57.75
2019-03-24T11:26:12.511Z,56.94
2019-03-24T11:27:12.513Z,57.57
2019-03-24T11:28:12.652Z,57.27
2019-03-24T11:29:13.156Z,57.68
2019-03-24T11:30:12.456Z,57.88
2019-03-24T11:31:13.212Z,58.50
2019-03-24T11:32:12.503Z,58.37
2019-03-24T11:33:12.428Z,57.45
2019-03-24T11:34:12.421Z,57.04
2019-03-24T11:35:12.468Z,56.32
2019-03-24T11:36:12.417Z,56.94
2019-03-24T11:37:12.437Z,57.12
2019-03-24T11:38:12.385Z,57.52
2019-03-24T11:39:12.364Z,56.50
2019-03-24T11:40:12.569Z,56.10
2019-03-24T11:41:12.388Z,55.99
2019-03-24T11:42:12.346Z,55.69
2019-03-24T11:43:12.326Z,55.48
2019-03-24T11:44:12.316Z,55.69
2019-03-24T11:45:12.345Z,55.79
2019-03-24T11:46:12.287Z,55.18
2019-03-24T11:47:12.401Z,54.46
2019-03-24T11:48:12.306Z,54.87
2019-03-24T11:49:12.292Z,54.87
2019-03-24T11:50:12.335Z,54.97
2019-03-24T11:51:12.266Z,54.97
2019-03-24T11:52:12.283Z,55.18
2019-03-24T11:53:13.163Z,55.58
2019-03-24T11:54:12.244Z,53.64
2019-03-24T11:55:12.230Z,54.05
2019-03-24T11:56:12.256Z,54.26
2019-03-24T11:57:12.244Z,54.46
2019-03-24T11:58:12.281Z,54.13
2019-03-24T11:59:12.191Z,53.62
2019-03-24T12:00:12.186Z,52.48
2019-03-24T12:01:12.165Z,52.88
2019-03-24T12:02:22.252Z,51.58
2019-03-24T12:03:12.115Z,51.99
2019-03-24T12:04:12.131Z,51.58
2019-03-24T12:05:12.200Z,52.29
2019-03-24T12:06:14.780Z,52.09
2019-03-24T12:07:12.684Z,52.58
2019-03-24T12:08:12.076Z,51.15
2019-03-24T12:09:12.067Z,50.31
2019-03-24T12:10:12.029Z,50.72
2019-03-24T12:11:12.039Z,50.13
2019-03-24T12:12:12.215Z,50.31
2019-03-24T12:13:12.016Z,49.80
2019-03-24T12:14:12.005Z,50.11
2019-03-24T12:15:12.067Z,48.89
2019-03-24T12:16:11.978Z,49.70
2019-03-24T12:17:11.948Z,49.80
2019-03-24T12:18:12.055Z,49.60
2019-03-24T12:19:11.952Z,49.50
2019-03-24T12:20:11.915Z,48.27
2019-03-24T12:21:11.951Z,47.56
2019-03-24T12:22:11.898Z,46.15
2019-03-24T12:23:11.961Z,45.57
2019-03-24T12:24:11.855Z,46.28
2019-03-24T12:25:11.842Z,46.48
2019-03-24T12:26:11.911Z,46.18
2019-03-24T12:27:11.830Z,45.87
2019-03-24T12:28:11.822Z,45.47
2019-03-24T12:29:11.938Z,45.69
2019-03-24T12:30:11.867Z,45.47
2019-03-24T12:31:11.788Z,44.75
2019-03-24T12:32:11.785Z,45.06
2019-03-24T12:33:11.771Z,45.06
2019-03-24T12:34:11.743Z,44.93
2019-03-24T12:35:11.742Z,44.20
2019-03-24T12:36:11.823Z,43.26
2019-03-24T12:37:11.737Z,42.53
2019-03-24T12:38:11.709Z,42.51
2019-03-24T12:39:11.684Z,43.10
2019-03-24T12:40:11.761Z,43.61
2019-03-24T12:41:11.721Z,43.51
2019-03-24T12:42:11.656Z,43.20
2019-03-24T12:43:19.364Z,43.00
2019-03-24T12:44:12.644Z,42.19
2019-03-24T12:45:11.739Z,41.15
2019-03-24T12:46:11.613Z,41.76
2019-03-24T12:47:11.616Z,41.25
2019-03-24T12:48:11.607Z,41.03
2019-03-24T12:49:11.590Z,39.49
2019-03-24T12:50:11.559Z,39.18
2019-03-24T12:51:11.556Z,38.90
2019-03-24T12:52:13.088Z,39.00